createdAt,value
2022-08-22T00:00:24.856Z,96868.09
2022-08-22T00:02:45.811Z,96999.41
2022-08-22T00:03:01.690Z,96962.97
2022-08-22T00:03:03.565Z,96988.78
2022-08-22T00:03:04.817Z,97013.00
2022-08-22T00:03:22.829Z,96872.19
2022-08-22T00:06:02.608Z,96865.22
2022-08-22T00:08:39.590Z,96864.72
2022-08-22T00:11:13.784Z,96867.03
2022-08-22T00:13:48.845Z,96866.47
2022-08-22T00:16:32.481Z,96870.69
2022-08-22T00:19:07.447Z,96870.97
2022-08-22T00:21:42.006Z,96873.97
2022-08-22T00:24:19.134Z,96871.22
2022-08-22T00:26:51.885Z,96879.41
2022-08-22T00:29:25.549Z,96869.25
2022-08-22T00:32:01.776Z,96869.84
2022-08-22T00:34:34.685Z,96863.75
2022-08-22T00:37:08.585Z,96868.56
2022-08-22T00:39:43.225Z,96870.00
2022-08-22T00:42:32.989Z,96854.94
2022-08-22T00:45:14.107Z,96854.22
2022-08-22T00:47:51.117Z,96854.16
2022-08-22T00:50:46.180Z,96856.34
2022-08-22T00:53:41.308Z,96852.84
2022-08-22T00:56:42.490Z,96845.47
2022-08-22T00:59:37.408Z,96852.34
2022-08-22T01:02:16.500Z,96848.03
2022-08-22T01:04:52.869Z,96843.91
2022-08-22T01:07:38.158Z,96846.91
2022-08-22T01:10:20.881Z,96849.78
2022-08-22T01:13:05.200Z,96841.97
2022-08-22T01:15:36.445Z,96832.19
2022-08-22T01:18:26.056Z,96828.34
2022-08-22T01:21:43.534Z,96833.56
2022-08-22T01:25:11.985Z,96830.50
2022-08-22T01:28:13.363Z,96828.25
2022-08-22T01:31:30.036Z,96831.34
2022-08-22T01:34:48.989Z,96824.31
2022-08-22T01:37:45.358Z,96827.31
2022-08-22T01:40:55.612Z,96823.91
2022-08-22T01:43:43.894Z,96823.59
2022-08-22T01:46:33.633Z,96828.34
2022-08-22T01:49:09.016Z,96819.84
2022-08-22T01:51:41.595Z,96818.56
2022-08-22T01:54:14.685Z,96820.59
2022-08-22T01:56:44.996Z,96822.44
2022-08-22T01:59:15.870Z,96820.75
2022-08-22T02:02:01.280Z,96821.47
2022-08-22T02:04:38.991Z,96824.03
2022-08-22T02:07:12.641Z,96818.50
2022-08-22T02:09:47.525Z,96822.66
2022-08-22T02:12:36.481Z,96816.13
2022-08-22T02:15:14.256Z,96808.91
2022-08-22T02:18:02.219Z,96814.25
2022-08-22T02:20:34.417Z,96817.00
2022-08-22T02:23:09.038Z,96806.34
2022-08-22T02:25:50.481Z,96812.34
2022-08-22T02:28:29.419Z,96808.78
2022-08-22T02:31:04.172Z,96803.69
2022-08-22T02:33:42.181Z,96802.81
2022-08-22T02:36:18.002Z,96809.56
2022-08-22T02:38:52.607Z,96809.38
2022-08-22T02:41:25.802Z,96806.28
2022-08-22T02:43:56.516Z,96804.75
2022-08-22T02:46:30.873Z,96811.97
2022-08-22T02:49:09.372Z,96812.94
2022-08-22T02:51:44.610Z,96811.84
2022-08-22T02:54:17.532Z,96812.06
2022-08-22T02:56:51.872Z,96810.34
2022-08-22T02:59:32.040Z,96811.16
2022-08-22T03:02:31.059Z,96809.09
2022-08-22T03:05:01.812Z,96816.28
2022-08-22T03:07:43.061Z,96817.22
2022-08-22T03:10:18.857Z,96814.09
2022-08-22T03:12:57.629Z,96810.56
2022-08-22T03:15:32.194Z,96804.09
2022-08-22T03:18:05.456Z,96811.19
2022-08-22T03:20:43.250Z,96810.66
2022-08-22T03:23:17.676Z,96811.53
2022-08-22T03:25:50.262Z,96804.38
2022-08-22T03:28:23.576Z,96809.69
2022-08-22T03:31:01.269Z,96804.00
2022-08-22T03:33:31.124Z,96809.38
2022-08-22T03:36:05.116Z,96809.66
2022-08-22T03:38:46.944Z,96808.03
2022-08-22T03:41:33.708Z,96815.66
2022-08-22T03:44:24.390Z,96817.38
2022-08-22T03:47:07.588Z,96819.88
2022-08-22T03:50:11.075Z,96822.75
2022-08-22T03:53:19.201Z,96817.69
2022-08-22T03:56:23.420Z,96820.34
2022-08-22T03:59:09.922Z,96824.03
2022-08-22T04:02:42.527Z,96822.44
2022-08-22T04:05:26.699Z,96816.84
2022-08-22T04:08:33.950Z,96823.75
2022-08-22T04:11:21.572Z,96821.59
2022-08-22T04:14:07.794Z,96820.69
2022-08-22T04:17:06.920Z,96826.41
2022-08-22T04:19:56.223Z,96823.38
2022-08-22T04:22:38.664Z,96828.50
2022-08-22T04:25:08.804Z,96834.97
2022-08-22T04:27:42.185Z,96834.38
2022-08-22T04:30:18.417Z,96822.75
2022-08-22T04:32:51.257Z,96837.66
2022-08-22T04:35:28.535Z,96832.03
2022-08-22T04:38:00.722Z,96833.47
2022-08-22T04:40:32.165Z,96832.72
2022-08-22T04:43:06.226Z,96842.44
2022-08-22T04:45:38.402Z,96848.28
2022-08-22T04:48:09.564Z,96843.53
2022-08-22T04:50:43.256Z,96848.16
2022-08-22T04:53:43.956Z,96842.88
2022-08-22T04:56:23.443Z,96841.25
2022-08-22T04:58:56.039Z,96849.91
2022-08-22T05:01:25.904Z,96843.19
2022-08-22T05:03:59.012Z,96854.53
2022-08-22T05:06:29.922Z,96841.28
2022-08-22T05:09:03.637Z,96841.75
2022-08-22T05:11:32.555Z,96838.84
2022-08-22T05:14:04.196Z,96847.47
2022-08-22T05:16:35.839Z,96847.28
2022-08-22T05:19:11.999Z,96849.47
2022-08-22T05:21:43.997Z,96841.47
2022-08-22T05:24:19.976Z,96843.88
2022-08-22T05:26:51.768Z,96843.66
2022-08-22T05:29:24.361Z,96841.44
2022-08-22T05:31:55.861Z,96854.97
2022-08-22T05:34:26.250Z,96852.31
2022-08-22T05:36:58.373Z,96846.13
2022-08-22T05:39:29.971Z,96853.25
2022-08-22T05:42:01.293Z,96861.63
2022-08-22T05:44:32.834Z,96855.50
2022-08-22T05:47:03.316Z,96866.81
2022-08-22T05:49:37.000Z,96854.25
2022-08-22T05:52:10.480Z,96858.56
2022-08-22T05:54:51.872Z,96856.28
2022-08-22T05:57:26.695Z,96855.47
2022-08-22T06:00:01.952Z,96852.66
2022-08-22T06:02:51.270Z,96851.16
2022-08-22T06:05:24.880Z,96859.84
2022-08-22T06:07:57.070Z,96856.53
2022-08-22T06:10:29.836Z,96866.56
2022-08-22T06:13:02.615Z,96855.72
2022-08-22T06:15:35.437Z,96854.00
2022-08-22T06:18:07.722Z,96863.66
2022-08-22T06:20:40.227Z,96857.44
2022-08-22T06:23:09.568Z,96850.28
2022-08-22T06:25:41.106Z,96867.00
2022-08-22T06:28:11.027Z,96865.22
2022-08-22T06:30:40.682Z,96863.66
2022-08-22T06:33:12.650Z,96874.97
2022-08-22T06:36:01.012Z,96871.91
2022-08-22T06:38:33.568Z,96870.72
2022-08-22T06:41:06.887Z,96875.56
2022-08-22T06:43:38.946Z,96871.34
2022-08-22T06:46:07.528Z,96875.47
2022-08-22T06:48:36.960Z,96872.72
2022-08-22T06:51:08.344Z,96871.56
2022-08-22T06:53:40.334Z,96868.22
2022-08-22T06:56:22.327Z,96875.44
2022-08-22T06:58:52.303Z,96873.78
2022-08-22T07:01:23.320Z,96869.34
2022-08-22T07:03:53.749Z,96865.97
2022-08-22T07:06:30.561Z,96873.59
2022-08-22T07:08:59.443Z,96883.56
2022-08-22T07:11:38.234Z,96873.31
2022-08-22T07:14:08.903Z,96869.31
2022-08-22T07:16:42.610Z,96878.38
2022-08-22T07:19:12.306Z,96874.94
2022-08-22T07:21:46.165Z,96877.88
2022-08-22T07:24:17.520Z,96881.81
2022-08-22T07:27:09.021Z,96880.44
2022-08-22T07:29:45.506Z,96874.47
2022-08-22T07:32:17.571Z,96882.09
2022-08-22T07:35:05.805Z,96884.38
2022-08-22T07:37:54.075Z,96883.94
2022-08-22T07:40:27.414Z,96872.34
2022-08-22T07:43:03.318Z,96879.69
2022-08-22T07:45:38.968Z,96876.50
2022-08-22T07:48:25.520Z,96874.34
2022-08-22T07:51:05.394Z,96879.66
2022-08-22T07:53:41.448Z,96872.66
2022-08-22T07:56:15.611Z,96876.09
2022-08-22T07:58:47.871Z,96870.56
2022-08-22T08:01:19.774Z,96867.47
2022-08-22T08:03:55.104Z,96870.13
2022-08-22T08:06:24.885Z,96869.84
2022-08-22T08:08:53.929Z,96874.81
2022-08-22T08:11:24.551Z,96871.78
2022-08-22T08:13:58.275Z,96875.38
2022-08-22T08:16:32.586Z,96872.06
2022-08-22T08:19:02.022Z,96872.53
2022-08-22T08:21:32.604Z,96870.41
2022-08-22T08:24:01.981Z,96869.00
2022-08-22T08:26:34.466Z,96866.75
2022-08-22T08:29:04.113Z,96870.81
2022-08-22T08:31:43.304Z,96873.75
2022-08-22T08:34:16.402Z,96867.84
2022-08-22T08:36:49.716Z,96864.38
2022-08-22T08:39:22.953Z,96864.38
2022-08-22T08:42:15.363Z,96860.63
2022-08-22T08:45:03.107Z,96864.22
2022-08-22T08:47:46.098Z,96857.97
2022-08-22T08:50:26.790Z,96868.97
2022-08-22T08:53:31.345Z,96867.69
2022-08-22T08:56:04.325Z,96871.44
2022-08-22T08:58:43.453Z,96869.56
2022-08-22T09:01:35.779Z,96865.63
2022-08-22T09:04:25.356Z,96864.47
2022-08-22T09:07:24.529Z,96865.91
2022-08-22T09:10:11.177Z,96857.97
2022-08-22T09:13:21.530Z,96857.72
2022-08-22T09:16:11.442Z,96857.91
2022-08-22T09:19:24.481Z,96858.09
2022-08-22T09:22:18.486Z,96855.56
2022-08-22T09:25:17.915Z,96850.50
2022-08-22T09:27:51.444Z,96852.19
2022-08-22T09:30:27.616Z,96855.09
2022-08-22T09:32:59.637Z,96852.22
2022-08-22T09:35:36.110Z,96843.00
2022-08-22T09:38:31.220Z,96851.72
2022-08-22T09:41:08.711Z,96843.38
2022-08-22T09:43:44.709Z,96841.94
2022-08-22T09:46:20.227Z,96843.19
2022-08-22T09:49:02.375Z,96840.84
2022-08-22T09:51:40.420Z,96842.13
2022-08-22T09:54:31.127Z,96834.22
2022-08-22T09:57:16.919Z,96835.25
2022-08-22T10:00:22.684Z,96840.72
2022-08-22T10:03:06.292Z,96840.28
2022-08-22T10:05:44.194Z,96830.25
2022-08-22T10:08:26.669Z,96833.81
2022-08-22T10:11:07.632Z,96828.53
2022-08-22T10:13:46.400Z,96825.78
2022-08-22T10:16:21.686Z,96822.63
2022-08-22T10:19:00.549Z,96822.13
2022-08-22T10:21:36.345Z,96813.56
2022-08-22T10:24:25.513Z,96820.25
2022-08-22T10:26:55.834Z,96831.81
2022-08-22T10:29:47.277Z,96821.53
2022-08-22T10:32:27.524Z,96821.44
2022-08-22T10:34:58.713Z,96824.16
2022-08-22T10:37:32.340Z,96830.06
2022-08-22T10:40:07.166Z,96833.75
2022-08-22T10:42:40.127Z,96831.59
2022-08-22T10:45:32.130Z,96835.38
2022-08-22T10:48:31.861Z,96837.31
2022-08-22T10:51:08.721Z,96835.47
2022-08-22T10:54:02.324Z,96839.59
2022-08-22T10:56:36.670Z,96825.34
2022-08-22T10:59:13.307Z,96840.63
2022-08-22T11:01:46.128Z,96836.13
2022-08-22T11:04:27.975Z,96852.16
2022-08-22T11:07:02.253Z,96850.13
2022-08-22T11:09:55.178Z,96846.28
2022-08-22T11:12:34.646Z,96835.50
2022-08-22T11:15:07.457Z,96848.59
2022-08-22T11:18:13.235Z,96849.34
2022-08-22T11:20:51.735Z,96846.78
2022-08-22T11:23:27.091Z,96866.50
2022-08-22T11:26:05.153Z,96851.63
2022-08-22T11:29:14.063Z,96860.56
2022-08-22T11:31:51.323Z,96853.25
2022-08-22T11:34:32.262Z,96850.31
2022-08-22T11:37:10.926Z,96860.88
2022-08-22T11:39:42.888Z,96856.66
2022-08-22T11:42:16.350Z,96868.22
2022-08-22T11:44:55.665Z,96861.09
2022-08-22T11:47:28.910Z,96876.16
2022-08-22T11:49:59.544Z,96877.91
2022-08-22T11:52:39.614Z,96872.69
2022-08-22T11:55:21.562Z,96865.38
2022-08-22T11:57:51.825Z,96873.25
2022-08-22T12:00:27.939Z,96871.94
2022-08-22T12:03:23.333Z,96890.31
2022-08-22T12:05:53.403Z,96891.09
2022-08-22T12:08:46.296Z,96879.84
2022-08-22T12:11:19.480Z,96883.88
2022-08-22T12:13:51.660Z,96885.09
2022-08-22T12:16:44.992Z,96884.38
2022-08-22T12:19:23.367Z,96880.84
2022-08-22T12:22:10.601Z,96871.50
2022-08-22T12:25:02.710Z,96875.63
2022-08-22T12:27:53.888Z,96880.94
2022-08-22T12:30:31.318Z,96884.16
2022-08-22T12:33:30.235Z,96883.88
2022-08-22T12:36:17.984Z,96892.81
2022-08-22T12:38:58.384Z,96885.94
2022-08-22T12:41:38.867Z,96896.41
2022-08-22T12:44:20.429Z,96893.59
2022-08-22T12:47:04.549Z,96895.50
2022-08-22T12:49:49.788Z,96892.03
2022-08-22T12:52:31.787Z,96901.44
2022-08-22T12:55:27.420Z,96900.38
2022-08-22T12:58:01.971Z,96896.47
2022-08-22T13:00:34.697Z,96897.53
2022-08-22T13:03:06.106Z,96904.47
2022-08-22T13:05:40.990Z,96904.03
2022-08-22T13:08:12.726Z,96913.44
2022-08-22T13:10:44.913Z,96895.59
2022-08-22T13:13:16.603Z,96891.47
2022-08-22T13:15:56.427Z,96901.22
2022-08-22T13:18:31.093Z,96894.88
2022-08-22T13:21:04.270Z,96902.53
2022-08-22T13:23:39.600Z,96899.41
2022-08-22T13:26:31.628Z,96908.13
2022-08-22T13:29:24.498Z,96908.63
2022-08-22T13:31:55.349Z,96908.28
2022-08-22T13:34:38.509Z,96900.25
2022-08-22T13:37:14.890Z,96906.69
2022-08-22T13:39:46.580Z,96900.38
2022-08-22T13:42:20.220Z,96914.75
2022-08-22T13:45:02.219Z,96907.13
2022-08-22T13:47:34.576Z,96905.28
2022-08-22T13:50:11.262Z,96907.13
2022-08-22T13:52:49.377Z,96905.47
2022-08-22T13:55:32.598Z,96918.06
2022-08-22T13:58:07.680Z,96907.13
2022-08-22T14:01:18.435Z,96912.41
2022-08-22T14:03:49.289Z,96909.41
2022-08-22T14:06:43.989Z,96914.00
2022-08-22T14:09:29.519Z,96913.13
2022-08-22T14:12:12.179Z,96914.34
2022-08-22T14:14:43.053Z,96909.34
2022-08-22T14:17:21.276Z,96911.63
2022-08-22T14:19:59.792Z,96907.66
2022-08-22T14:22:35.157Z,96909.28
2022-08-22T14:25:10.205Z,96909.75
2022-08-22T14:27:40.729Z,96905.50
2022-08-22T14:30:16.181Z,96902.31
2022-08-22T14:32:49.246Z,96899.09
2022-08-22T14:35:35.204Z,96894.13
2022-08-22T14:38:21.468Z,96890.25
2022-08-22T14:41:02.133Z,96906.50
2022-08-22T14:43:49.952Z,96898.25
2022-08-22T14:46:26.557Z,96908.78
2022-08-22T14:49:13.701Z,96907.78
2022-08-22T14:51:48.643Z,96912.97
2022-08-22T14:54:21.948Z,96909.53
2022-08-22T14:56:53.557Z,96916.69
2022-08-22T14:59:36.528Z,96913.13
2022-08-22T15:02:11.598Z,96913.31
2022-08-22T15:04:44.037Z,96910.59
2022-08-22T15:07:14.896Z,96908.88
2022-08-22T15:09:52.326Z,96902.81
2022-08-22T15:12:27.568Z,96902.44
2022-08-22T15:14:58.122Z,96899.19
2022-08-22T15:17:40.080Z,96896.75
2022-08-22T15:20:27.981Z,96903.44
2022-08-22T15:22:59.133Z,96895.09
2022-08-22T15:25:30.790Z,96897.88
2022-08-22T15:28:05.595Z,96893.94
2022-08-22T15:30:37.987Z,96895.44
2022-08-22T15:33:16.946Z,96890.41
2022-08-22T15:35:48.259Z,96895.00
2022-08-22T15:38:29.343Z,96894.03
2022-08-22T15:41:02.955Z,96899.69
2022-08-22T15:43:36.208Z,96898.38
2022-08-22T15:46:18.847Z,96894.09
2022-08-22T15:48:57.447Z,96887.50
2022-08-22T15:51:39.897Z,96899.34
2022-08-22T15:54:16.357Z,96889.31
2022-08-22T15:57:14.132Z,96890.38
2022-08-22T15:59:54.688Z,96887.84
2022-08-22T16:02:27.243Z,96888.81
2022-08-22T16:05:05.226Z,96885.97
2022-08-22T16:07:40.513Z,96886.66
2022-08-22T16:10:12.516Z,96886.94
2022-08-22T16:12:44.061Z,96878.22
2022-08-22T16:15:41.951Z,96881.41
2022-08-22T16:18:50.182Z,96876.41
2022-08-22T16:21:19.579Z,96878.56
2022-08-22T16:24:25.390Z,96874.25
2022-08-22T16:26:53.978Z,96862.94
2022-08-22T16:29:35.543Z,96871.25
2022-08-22T16:32:11.229Z,96868.47
2022-08-22T16:34:43.998Z,96863.47
2022-08-22T16:37:47.871Z,96869.88
2022-08-22T16:40:21.788Z,96867.69
2022-08-22T16:42:55.045Z,96874.59
2022-08-22T16:45:33.730Z,96870.72
2022-08-22T16:48:23.103Z,96874.25
2022-08-22T16:51:09.425Z,96874.34
2022-08-22T16:54:06.301Z,96878.53
2022-08-22T16:56:39.408Z,96874.13
2022-08-22T16:59:38.627Z,96876.06
2022-08-22T17:02:25.802Z,96884.16
2022-08-22T17:05:05.481Z,96877.88
2022-08-22T17:07:48.414Z,96886.44
2022-08-22T17:10:41.825Z,96889.94
2022-08-22T17:13:20.671Z,96895.22
2022-08-22T17:16:22.935Z,96890.63
2022-08-22T17:19:03.913Z,96883.41
2022-08-22T17:21:39.824Z,96893.91
2022-08-22T17:24:32.176Z,96890.91
2022-08-22T17:27:08.341Z,96894.84
2022-08-22T17:29:45.972Z,96900.28
2022-08-22T17:32:18.786Z,96898.88
2022-08-22T17:34:56.961Z,96907.88
2022-08-22T17:37:35.989Z,96897.25
2022-08-22T17:40:15.637Z,96892.16
2022-08-22T17:43:00.415Z,96904.00
2022-08-22T17:45:38.017Z,96915.81
2022-08-22T17:48:09.169Z,96913.03
2022-08-22T17:50:43.224Z,96911.44
2022-08-22T17:53:16.064Z,96921.66
2022-08-22T17:55:59.737Z,96926.25
2022-08-22T17:58:37.596Z,96933.31
2022-08-22T18:01:15.837Z,96938.19
2022-08-22T18:03:47.986Z,96934.31
2022-08-22T18:06:20.289Z,96937.28
2022-08-22T18:11:46.524Z,96944.50
2022-08-22T18:14:25.765Z,96943.53
2022-08-22T18:16:55.469Z,96948.56
2022-08-22T18:19:40.362Z,96952.69
2022-08-22T18:22:13.063Z,96943.25
2022-08-22T18:24:49.493Z,96951.09
2022-08-22T18:27:34.292Z,96944.28
2022-08-22T18:30:07.979Z,96961.34
2022-08-22T18:32:41.911Z,96957.53
2022-08-22T18:35:20.950Z,96962.31
2022-08-22T18:37:58.211Z,96964.13
2022-08-22T18:40:32.113Z,96968.88
2022-08-22T18:43:08.884Z,96959.63
2022-08-22T18:46:02.780Z,96957.94
2022-08-22T18:48:49.523Z,96977.47
2022-08-22T18:51:29.728Z,96961.50
2022-08-22T18:54:16.334Z,96968.47
2022-08-22T18:56:50.871Z,96967.41
2022-08-22T18:59:42.364Z,96966.78
2022-08-22T19:02:25.920Z,96971.75
2022-08-22T19:05:12.360Z,96976.69
2022-08-22T19:07:54.032Z,96973.41
2022-08-22T19:10:41.915Z,96981.50
2022-08-22T19:13:22.615Z,96980.28
2022-08-22T19:16:06.850Z,96980.13
2022-08-22T19:18:42.970Z,96987.94
2022-08-22T19:21:38.358Z,96980.00
2022-08-22T19:24:09.720Z,96988.16
2022-08-22T19:26:41.959Z,96994.91
2022-08-22T19:29:56.163Z,96998.22
2022-08-22T19:33:01.781Z,96996.13
2022-08-22T19:35:46.365Z,96988.97
2022-08-22T19:38:53.426Z,96990.25
2022-08-22T19:41:57.095Z,96987.09
2022-08-22T19:44:38.098Z,96974.84
2022-08-22T19:47:14.292Z,96983.19
2022-08-22T19:49:45.910Z,96989.63
2022-08-22T19:52:23.175Z,96985.25
2022-08-22T19:54:57.965Z,96991.50
2022-08-22T19:57:37.714Z,96989.41
2022-08-22T20:00:11.142Z,96988.94
2022-08-22T20:02:51.305Z,96987.81
2022-08-22T20:05:29.190Z,96984.84
2022-08-22T20:08:12.470Z,96993.16
2022-08-22T20:10:51.519Z,96995.06
2022-08-22T20:13:23.021Z,97004.22
2022-08-22T20:16:16.218Z,96995.25
2022-08-22T20:19:06.475Z,96999.91
2022-08-22T20:21:45.422Z,97001.78
2022-08-22T20:24:16.198Z,96998.53
2022-08-22T20:27:10.099Z,96996.50
2022-08-22T20:29:36.002Z,97003.69
2022-08-22T20:32:06.421Z,97003.47
2022-08-22T20:34:38.579Z,96991.81
2022-08-22T20:37:29.643Z,96989.31
2022-08-22T20:40:00.946Z,96992.06
2022-08-22T20:42:32.227Z,96989.94
2022-08-22T20:45:00.976Z,96990.25
2022-08-22T20:47:40.674Z,96975.75
2022-08-22T20:50:11.586Z,96985.06
2022-08-22T20:52:54.356Z,96983.91
2022-08-22T20:55:27.321Z,96981.78
2022-08-22T20:58:02.681Z,96978.16
2022-08-22T21:00:33.079Z,96980.22
2022-08-22T21:03:03.053Z,96985.69
2022-08-22T21:05:35.100Z,96979.25
2022-08-22T21:08:06.867Z,96984.13
2022-08-22T21:10:54.526Z,96987.34
2022-08-22T21:13:26.169Z,96981.56
2022-08-22T21:15:57.181Z,96969.97
2022-08-22T21:18:28.972Z,96973.88
2022-08-22T21:21:08.056Z,96978.00
2022-08-22T21:23:50.208Z,96968.81
2022-08-22T21:26:23.068Z,96970.91
2022-08-22T21:28:57.730Z,96980.56
2022-08-22T21:31:27.240Z,96967.84
2022-08-22T21:33:56.466Z,96969.56
2022-08-22T21:36:27.912Z,96977.75
2022-08-22T21:39:00.885Z,96964.00
2022-08-22T21:41:35.801Z,96980.59
2022-08-22T21:44:25.456Z,96990.25
2022-08-22T21:46:53.732Z,96982.38
2022-08-22T21:49:23.757Z,96980.22
2022-08-22T21:51:52.518Z,96969.97
2022-08-22T21:54:39.677Z,96971.25
2022-08-22T21:57:33.517Z,96977.69
2022-08-22T22:00:02.173Z,96963.34
2022-08-22T22:02:41.909Z,96972.28
2022-08-22T22:05:14.277Z,96964.66
2022-08-22T22:07:44.439Z,96967.47
2022-08-22T22:10:16.856Z,96971.00
2022-08-22T22:12:46.737Z,96974.19
2022-08-22T22:15:17.406Z,96982.00
2022-08-22T22:17:45.690Z,96980.28
2022-08-22T22:20:15.346Z,96976.31
2022-08-22T22:22:46.361Z,96979.38
2022-08-22T22:25:40.704Z,96973.44
2022-08-22T22:28:08.826Z,96975.09
2022-08-22T22:30:37.139Z,97002.84
2022-08-22T22:33:05.623Z,96988.47
2022-08-22T22:35:33.907Z,96996.91
2022-08-22T22:38:02.425Z,96991.09
2022-08-22T22:40:32.295Z,96988.16
2022-08-22T22:43:00.716Z,96983.59
2022-08-22T22:45:28.879Z,96983.25
2022-08-22T22:47:57.243Z,96979.34
2022-08-22T22:50:25.731Z,96984.47
2022-08-22T22:52:54.046Z,96981.19
2022-08-22T22:55:24.969Z,96980.84
2022-08-22T22:57:58.718Z,96979.53
2022-08-22T23:00:30.742Z,96982.19
2022-08-22T23:03:00.876Z,96978.34
2022-08-22T23:05:29.487Z,96978.53
2022-08-22T23:07:58.116Z,96973.44
2022-08-22T23:10:27.325Z,96983.88
2022-08-22T23:12:56.896Z,96980.25
2022-08-22T23:15:25.261Z,96978.72
2022-08-22T23:17:53.555Z,96980.59
2022-08-22T23:20:21.756Z,96982.72
2022-08-22T23:22:50.224Z,96985.88
2022-08-22T23:25:18.523Z,96983.66
2022-08-22T23:27:48.685Z,96983.06
2022-08-22T23:30:23.337Z,96987.38
2022-08-22T23:32:51.688Z,96989.47
2022-08-22T23:35:20.032Z,96998.84
2022-08-22T23:37:48.213Z,96986.84
2022-08-22T23:40:16.720Z,96986.00
2022-08-22T23:42:45.005Z,96984.09
2022-08-22T23:45:13.576Z,96982.69
2022-08-22T23:47:43.155Z,96985.53
2022-08-22T23:50:11.351Z,96982.09
2022-08-22T23:52:39.750Z,96985.31
2022-08-22T23:55:08.760Z,96991.84
2022-08-22T23:57:37.001Z,96991.81
